sensor_id;sensor_type;location;lat;lon;timestamp;pressure;altitude;pressure_sealevel;temperature
68952;BMP180;56000;51.146;17.112;2023-07-13T00:00:40;99844.60;;;21.26
68952;BMP180;56000;51.146;17.112;2023-07-13T00:03:33;99848.40;;;21.20
68952;BMP180;56000;51.146;17.112;2023-07-13T00:06:07;99853.00;;;21.20
68952;BMP180;56000;51.146;17.112;2023-07-13T00:08:41;99859.20;;;21.20
68952;BMP180;56000;51.146;17.112;2023-07-13T00:11:14;99852.00;;;21.20
68952;BMP180;56000;51.146;17.112;2023-07-13T00:13:48;99841.40;;;21.20
68952;BMP180;56000;51.146;17.112;2023-07-13T00:16:21;99836.00;;;21.10
68952;BMP180;56000;51.146;17.112;2023-07-13T00:18:54;99832.80;;;21.10
68952;BMP180;56000;51.146;17.112;2023-07-13T00:21:27;99836.60;;;21.10
68952;BMP180;56000;51.146;17.112;2023-07-13T00:24:01;99841.40;;;21.02
68952;BMP180;56000;51.146;17.112;2023-07-13T00:26:34;99845.00;;;21.00
68952;BMP180;56000;51.146;17.112;2023-07-13T00:29:08;99847.40;;;21.00
68952;BMP180;56000;51.146;17.112;2023-07-13T00:31:41;99840.20;;;21.00
68952;BMP180;56000;51.146;17.112;2023-07-13T00:34:15;99842.40;;;20.90
68952;BMP180;56000;51.146;17.112;2023-07-13T00:36:48;99847.60;;;20.90
68952;BMP180;56000;51.146;17.112;2023-07-13T00:39:22;99856.20;;;20.90
68952;BMP180;56000;51.146;17.112;2023-07-13T00:41:55;99856.40;;;20.82
68952;BMP180;56000;51.146;17.112;2023-07-13T00:44:29;99843.00;;;20.80
68952;BMP180;56000;51.146;17.112;2023-07-13T00:47:02;99836.40;;;20.80
68952;BMP180;56000;51.146;17.112;2023-07-13T00:49:37;99834.20;;;20.80
68952;BMP180;56000;51.146;17.112;2023-07-13T00:52:11;99848.80;;;20.80
68952;BMP180;56000;51.146;17.112;2023-07-13T00:54:46;99859.80;;;20.80
68952;BMP180;56000;51.146;17.112;2023-07-13T00:57:21;99860.80;;;20.70
68952;BMP180;56000;51.146;17.112;2023-07-13T00:59:59;99855.20;;;20.70
68952;BMP180;56000;51.146;17.112;2023-07-13T01:02:40;99852.60;;;20.60
68952;BMP180;56000;51.146;17.112;2023-07-13T01:05:17;99872.00;;;20.60
68952;BMP180;56000;51.146;17.112;2023-07-13T01:07:52;99886.60;;;20.60
68952;BMP180;56000;51.146;17.112;2023-07-13T01:10:27;99898.00;;;20.50
68952;BMP180;56000;51.146;17.112;2023-07-13T01:13:01;99903.40;;;20.42
68952;BMP180;56000;51.146;17.112;2023-07-13T01:15:41;99894.20;;;20.38
68952;BMP180;56000;51.146;17.112;2023-07-13T01:18:18;99871.40;;;20.30
68952;BMP180;56000;51.146;17.112;2023-07-13T01:20:56;99865.40;;;20.20
68952;BMP180;56000;51.146;17.112;2023-07-13T01:23:31;99867.00;;;20.10
68952;BMP180;56000;51.146;17.112;2023-07-13T01:26:04;99855.60;;;20.10
68952;BMP180;56000;51.146;17.112;2023-07-13T01:28:38;99848.20;;;20.08
68952;BMP180;56000;51.146;17.112;2023-07-13T01:31:13;99851.00;;;20.00
68952;BMP180;56000;51.146;17.112;2023-07-13T01:33:46;99850.20;;;20.00
68952;BMP180;56000;51.146;17.112;2023-07-13T01:36:19;99854.20;;;20.00
68952;BMP180;56000;51.146;17.112;2023-07-13T01:38:53;99853.80;;;20.00
68952;BMP180;56000;51.146;17.112;2023-07-13T01:41:26;99845.00;;;20.00
68952;BMP180;56000;51.146;17.112;2023-07-13T01:43:59;99840.40;;;19.92
68952;BMP180;56000;51.146;17.112;2023-07-13T01:46:32;99838.20;;;19.90
68952;BMP180;56000;51.146;17.112;2023-07-13T01:49:06;99840.80;;;19.90
68952;BMP180;56000;51.146;17.112;2023-07-13T01:51:39;99840.60;;;19.90
68952;BMP180;56000;51.146;17.112;2023-07-13T01:54:12;99836.20;;;19.90
68952;BMP180;56000;51.146;17.112;2023-07-13T01:56:47;99835.20;;;19.90
68952;BMP180;56000;51.146;17.112;2023-07-13T01:59:20;99831.20;;;19.80
68952;BMP180;56000;51.146;17.112;2023-07-13T02:01:54;99831.20;;;19.78
68952;BMP180;56000;51.146;17.112;2023-07-13T02:04:27;99828.00;;;19.70
68952;BMP180;56000;51.146;17.112;2023-07-13T02:07:00;99832.00;;;19.60
68952;BMP180;56000;51.146;17.112;2023-07-13T02:09:33;99826.80;;;19.60
68952;BMP180;56000;51.146;17.112;2023-07-13T02:12:08;99828.20;;;19.60
68952;BMP180;56000;51.146;17.112;2023-07-13T02:14:42;99827.00;;;19.60
68952;BMP180;56000;51.146;17.112;2023-07-13T02:17:16;99820.00;;;19.58
68952;BMP180;56000;51.146;17.112;2023-07-13T02:19:49;99811.40;;;19.50
68952;BMP180;56000;51.146;17.112;2023-07-13T02:22:24;99807.00;;;19.50
68952;BMP180;56000;51.146;17.112;2023-07-13T02:24:57;99802.40;;;19.50
68952;BMP180;56000;51.146;17.112;2023-07-13T02:27:30;99800.20;;;19.50
68952;BMP180;56000;51.146;17.112;2023-07-13T02:30:05;99801.00;;;19.40
68952;BMP180;56000;51.146;17.112;2023-07-13T02:32:38;99799.60;;;19.40
68952;BMP180;56000;51.146;17.112;2023-07-13T02:35:12;99793.40;;;19.30
68952;BMP180;56000;51.146;17.112;2023-07-13T02:37:45;99788.00;;;19.30
68952;BMP180;56000;51.146;17.112;2023-07-13T02:40:19;99794.20;;;19.30
68952;BMP180;56000;51.146;17.112;2023-07-13T02:42:52;99791.80;;;19.30
68952;BMP180;56000;51.146;17.112;2023-07-13T02:45:25;99781.80;;;19.28
68952;BMP180;56000;51.146;17.112;2023-07-13T02:47:59;99786.00;;;19.20
68952;BMP180;56000;51.146;17.112;2023-07-13T02:50:32;99785.60;;;19.20
68952;BMP180;56000;51.146;17.112;2023-07-13T02:53:05;99789.60;;;19.20
68952;BMP180;56000;51.146;17.112;2023-07-13T02:55:39;99794.00;;;19.20
68952;BMP180;56000;51.146;17.112;2023-07-13T02:58:12;99796.60;;;19.20
68952;BMP180;56000;51.146;17.112;2023-07-13T03:00:49;99806.20;;;19.20
68952;BMP180;56000;51.146;17.112;2023-07-13T03:03:23;99813.60;;;19.20
68952;BMP180;56000;51.146;17.112;2023-07-13T03:06:04;99816.20;;;19.10
68952;BMP180;56000;51.146;17.112;2023-07-13T03:08:47;99820.80;;;19.10
68952;BMP180;56000;51.146;17.112;2023-07-13T03:11:23;99827.80;;;19.10
68952;BMP180;56000;51.146;17.112;2023-07-13T03:14:01;99827.80;;;19.10
68952;BMP180;56000;51.146;17.112;2023-07-13T03:16:36;99826.60;;;19.08
68952;BMP180;56000;51.146;17.112;2023-07-13T03:19:09;99825.20;;;19.04
68952;BMP180;56000;51.146;17.112;2023-07-13T03:21:43;99830.60;;;19.10
68952;BMP180;56000;51.146;17.112;2023-07-13T03:24:16;99823.20;;;19.10
68952;BMP180;56000;51.146;17.112;2023-07-13T03:26:49;99811.80;;;19.10
68952;BMP180;56000;51.146;17.112;2023-07-13T03:29:23;99811.20;;;19.10
68952;BMP180;56000;51.146;17.112;2023-07-13T03:31:56;99805.00;;;19.20
68952;BMP180;56000;51.146;17.112;2023-07-13T03:34:30;99800.60;;;19.20
68952;BMP180;56000;51.146;17.112;2023-07-13T03:37:03;99798.80;;;19.30
68952;BMP180;56000;51.146;17.112;2023-07-13T03:39:36;99804.40;;;19.30
68952;BMP180;56000;51.146;17.112;2023-07-13T03:42:10;99819.00;;;19.40
68952;BMP180;56000;51.146;17.112;2023-07-13T03:44:44;99823.60;;;19.40
68952;BMP180;56000;51.146;17.112;2023-07-13T03:47:22;99824.80;;;19.50
68952;BMP180;56000;51.146;17.112;2023-07-13T03:49:55;99825.20;;;19.52
68952;BMP180;56000;51.146;17.112;2023-07-13T03:52:29;99820.00;;;19.60
68952;BMP180;56000;51.146;17.112;2023-07-13T03:55:03;99810.60;;;19.70
68952;BMP180;56000;51.146;17.112;2023-07-13T03:57:38;99808.40;;;19.80
68952;BMP180;56000;51.146;17.112;2023-07-13T04:00:14;99810.60;;;19.90
68952;BMP180;56000;51.146;17.112;2023-07-13T04:02:48;99811.60;;;20.00
68952;BMP180;56000;51.146;17.112;2023-07-13T04:05:21;99808.00;;;20.10
68952;BMP180;56000;51.146;17.112;2023-07-13T04:07:54;99808.20;;;20.20
68952;BMP180;56000;51.146;17.112;2023-07-13T04:10:28;99813.40;;;20.30
68952;BMP180;56000;51.146;17.112;2023-07-13T04:13:01;99824.40;;;20.40
68952;BMP180;56000;51.146;17.112;2023-07-13T04:15:34;99825.80;;;20.50
68952;BMP180;56000;51.146;17.112;2023-07-13T04:18:08;99835.00;;;20.50
68952;BMP180;56000;51.146;17.112;2023-07-13T04:20:41;99842.40;;;20.60
68952;BMP180;56000;51.146;17.112;2023-07-13T04:23:14;99852.00;;;20.60
68952;BMP180;56000;51.146;17.112;2023-07-13T04:25:49;99860.00;;;20.50
68952;BMP180;56000;51.146;17.112;2023-07-13T04:28:25;99872.20;;;20.40
68952;BMP180;56000;51.146;17.112;2023-07-13T04:30:59;99894.00;;;20.28
68952;BMP180;56000;51.146;17.112;2023-07-13T04:33:32;99942.40;;;20.10
68952;BMP180;56000;51.146;17.112;2023-07-13T04:36:06;99956.00;;;19.90
68952;BMP180;56000;51.146;17.112;2023-07-13T04:38:41;99958.80;;;19.80
68952;BMP180;56000;51.146;17.112;2023-07-13T04:41:16;99974.40;;;19.70
68952;BMP180;56000;51.146;17.112;2023-07-13T04:43:49;100008.20;;;19.60
68952;BMP180;56000;51.146;17.112;2023-07-13T04:46:23;100047.40;;;19.50
68952;BMP180;56000;51.146;17.112;2023-07-13T04:48:56;100084.80;;;19.20
68952;BMP180;56000;51.146;17.112;2023-07-13T04:51:30;100111.20;;;18.78
68952;BMP180;56000;51.146;17.112;2023-07-13T04:54:04;100122.20;;;18.26
68952;BMP180;56000;51.146;17.112;2023-07-13T04:56:39;100130.60;;;17.64
68952;BMP180;56000;51.146;17.112;2023-07-13T04:59:12;100128.80;;;17.16
68952;BMP180;56000;51.146;17.112;2023-07-13T05:01:46;100126.60;;;16.80
68952;BMP180;56000;51.146;17.112;2023-07-13T05:04:19;100137.00;;;16.60
68952;BMP180;56000;51.146;17.112;2023-07-13T05:06:52;100133.80;;;16.40
68952;BMP180;56000;51.146;17.112;2023-07-13T05:09:26;100131.80;;;16.28
68952;BMP180;56000;51.146;17.112;2023-07-13T05:11:59;100122.80;;;16.20
68952;BMP180;56000;51.146;17.112;2023-07-13T05:14:32;100124.20;;;16.10
68952;BMP180;56000;51.146;17.112;2023-07-13T05:17:06;100114.20;;;16.10
68952;BMP180;56000;51.146;17.112;2023-07-13T05:19:39;100111.20;;;16.10
68952;BMP180;56000;51.146;17.112;2023-07-13T05:22:12;100100.60;;;16.10
68952;BMP180;56000;51.146;17.112;2023-07-13T05:24:45;100098.80;;;16.08
68952;BMP180;56000;51.146;17.112;2023-07-13T05:27:19;100093.80;;;16.10
68952;BMP180;56000;51.146;17.112;2023-07-13T05:29:52;100084.80;;;16.10
68952;BMP180;56000;51.146;17.112;2023-07-13T05:32:25;100088.20;;;16.20
68952;BMP180;56000;51.146;17.112;2023-07-13T05:34:59;100082.20;;;16.20
68952;BMP180;56000;51.146;17.112;2023-07-13T05:37:32;100065.00;;;16.30
68952;BMP180;56000;51.146;17.112;2023-07-13T05:40:06;100037.80;;;16.30
68952;BMP180;56000;51.146;17.112;2023-07-13T05:42:40;100013.20;;;16.40
68952;BMP180;56000;51.146;17.112;2023-07-13T05:45:13;99981.80;;;16.40
68952;BMP180;56000;51.146;17.112;2023-07-13T05:47:46;99956.00;;;16.40
68952;BMP180;56000;51.146;17.112;2023-07-13T05:50:20;99958.00;;;16.44
68952;BMP180;56000;51.146;17.112;2023-07-13T05:52:53;99966.40;;;16.50
68952;BMP180;56000;51.146;17.112;2023-07-13T05:55:26;99981.60;;;16.50
68952;BMP180;56000;51.146;17.112;2023-07-13T05:58:01;99984.40;;;16.50
68952;BMP180;56000;51.146;17.112;2023-07-13T06:00:34;99986.00;;;16.60
68952;BMP180;56000;51.146;17.112;2023-07-13T06:03:08;99981.40;;;16.70
68952;BMP180;56000;51.146;17.112;2023-07-13T06:05:41;99968.00;;;16.70
68952;BMP180;56000;51.146;17.112;2023-07-13T06:08:14;99958.60;;;16.80
68952;BMP180;56000;51.146;17.112;2023-07-13T06:10:48;99940.60;;;16.90
68952;BMP180;56000;51.146;17.112;2023-07-13T06:13:21;99946.80;;;17.02
68952;BMP180;56000;51.146;17.112;2023-07-13T06:15:54;99963.00;;;17.20
68952;BMP180;56000;51.146;17.112;2023-07-13T06:18:27;99971.80;;;17.46
68952;BMP180;56000;51.146;17.112;2023-07-13T06:21:00;99977.00;;;17.68
68952;BMP180;56000;51.146;17.112;2023-07-13T06:23:34;99970.60;;;17.80
68952;BMP180;56000;51.146;17.112;2023-07-13T06:26:08;99976.00;;;17.98
68952;BMP180;56000;51.146;17.112;2023-07-13T06:28:41;99994.00;;;18.10
68952;BMP180;56000;51.146;17.112;2023-07-13T06:31:15;99999.80;;;18.30
68952;BMP180;56000;51.146;17.112;2023-07-13T06:33:48;100003.20;;;18.58
68952;BMP180;56000;51.146;17.112;2023-07-13T06:36:22;100000.60;;;18.80
68952;BMP180;56000;51.146;17.112;2023-07-13T06:38:55;99999.00;;;19.10
68952;BMP180;56000;51.146;17.112;2023-07-13T06:41:28;100003.00;;;19.20
68952;BMP180;56000;51.146;17.112;2023-07-13T06:44:02;100008.00;;;19.30
68952;BMP180;56000;51.146;17.112;2023-07-13T06:46:35;100011.40;;;19.30
68952;BMP180;56000;51.146;17.112;2023-07-13T06:49:09;100012.60;;;19.30
68952;BMP180;56000;51.146;17.112;2023-07-13T06:51:42;100024.40;;;19.30
68952;BMP180;56000;51.146;17.112;2023-07-13T06:54:16;100049.60;;;19.18
68952;BMP180;56000;51.146;17.112;2023-07-13T06:56:49;100065.00;;;19.00
68952;BMP180;56000;51.146;17.112;2023-07-13T06:59:23;100082.20;;;18.80
68952;BMP180;56000;51.146;17.112;2023-07-13T07:01:56;100088.80;;;18.60
68952;BMP180;56000;51.146;17.112;2023-07-13T07:04:29;100094.60;;;18.36
68952;BMP180;56000;51.146;17.112;2023-07-13T07:07:03;100096.20;;;18.16
68952;BMP180;56000;51.146;17.112;2023-07-13T07:09:36;100103.80;;;18.00
68952;BMP180;56000;51.146;17.112;2023-07-13T07:12:10;100114.80;;;17.80
68952;BMP180;56000;51.146;17.112;2023-07-13T07:14:46;100128.60;;;17.70
68952;BMP180;56000;51.146;17.112;2023-07-13T07:17:19;100136.20;;;17.60
68952;BMP180;56000;51.146;17.112;2023-07-13T07:19:55;100140.40;;;17.58
68952;BMP180;56000;51.146;17.112;2023-07-13T07:22:28;100143.60;;;17.50
68952;BMP180;56000;51.146;17.112;2023-07-13T07:25:02;100154.00;;;17.50
68952;BMP180;56000;51.146;17.112;2023-07-13T07:27:35;100162.40;;;17.50
68952;BMP180;56000;51.146;17.112;2023-07-13T07:30:13;100166.40;;;17.50
68952;BMP180;56000;51.146;17.112;2023-07-13T07:32:50;100160.00;;;17.50
68952;BMP180;56000;51.146;17.112;2023-07-13T07:35:26;100147.00;;;17.50
68952;BMP180;56000;51.146;17.112;2023-07-13T07:38:04;100131.60;;;17.50
68952;BMP180;56000;51.146;17.112;2023-07-13T07:40:40;100119.40;;;17.60
68952;BMP180;56000;51.146;17.112;2023-07-13T07:43:16;100092.60;;;17.60
68952;BMP180;56000;51.146;17.112;2023-07-13T07:45:50;100059.40;;;17.70
68952;BMP180;56000;51.146;17.112;2023-07-13T07:48:23;100046.80;;;17.70
68952;BMP180;56000;51.146;17.112;2023-07-13T07:50:56;100019.20;;;17.70
68952;BMP180;56000;51.146;17.112;2023-07-13T07:53:29;99974.00;;;17.80
68952;BMP180;56000;51.146;17.112;2023-07-13T07:56:05;99952.60;;;17.80
68952;BMP180;56000;51.146;17.112;2023-07-13T07:58:58;99963.40;;;17.80
68952;BMP180;56000;51.146;17.112;2023-07-13T08:01:34;99965.60;;;17.88
68952;BMP180;56000;51.146;17.112;2023-07-13T08:04:10;99964.20;;;17.90
68952;BMP180;56000;51.146;17.112;2023-07-13T08:07:04;99971.00;;;18.00
68952;BMP180;56000;51.146;17.112;2023-07-13T08:09:38;99986.80;;;18.20
68952;BMP180;56000;51.146;17.112;2023-07-13T08:12:11;100010.00;;;18.66
68952;BMP180;56000;51.146;17.112;2023-07-13T08:14:51;100032.80;;;19.12
68952;BMP180;56000;51.146;17.112;2023-07-13T08:17:25;100043.60;;;19.56
68952;BMP180;56000;51.146;17.112;2023-07-13T08:19:58;100055.20;;;19.92
68952;BMP180;56000;51.146;17.112;2023-07-13T08:22:31;100059.20;;;20.24
68952;BMP180;56000;51.146;17.112;2023-07-13T08:25:06;100065.00;;;20.40
68952;BMP180;56000;51.146;17.112;2023-07-13T08:27:39;100065.80;;;20.60
68952;BMP180;56000;51.146;17.112;2023-07-13T08:30:13;100078.00;;;20.70
68952;BMP180;56000;51.146;17.112;2023-07-13T08:32:46;100080.40;;;20.84
68952;BMP180;56000;51.146;17.112;2023-07-13T08:35:20;100093.40;;;20.80
68952;BMP180;56000;51.146;17.112;2023-07-13T08:37:53;100096.60;;;20.82
68952;BMP180;56000;51.146;17.112;2023-07-13T08:40:28;100095.60;;;20.80
68952;BMP180;56000;51.146;17.112;2023-07-13T08:43:02;100098.20;;;20.80
68952;BMP180;56000;51.146;17.112;2023-07-13T08:45:41;100105.40;;;20.90
68952;BMP180;56000;51.146;17.112;2023-07-13T08:48:20;100113.40;;;20.98
68952;BMP180;56000;51.146;17.112;2023-07-13T08:50:58;100119.40;;;21.08
68952;BMP180;56000;51.146;17.112;2023-07-13T08:53:38;100118.80;;;21.00
68952;BMP180;56000;51.146;17.112;2023-07-13T08:56:19;100126.80;;;20.90
68952;BMP180;56000;51.146;17.112;2023-07-13T08:58:58;100129.00;;;20.90
68952;BMP180;56000;51.146;17.112;2023-07-13T09:01:47;100124.60;;;21.00
68952;BMP180;56000;51.146;17.112;2023-07-13T09:04:28;100126.80;;;21.00
68952;BMP180;56000;51.146;17.112;2023-07-13T09:10:14;100135.00;;;21.30
68952;BMP180;56000;51.146;17.112;2023-07-13T09:13:02;100131.20;;;21.50
68952;BMP180;56000;51.146;17.112;2023-07-13T09:15:41;100133.40;;;21.92
68952;BMP180;56000;51.146;17.112;2023-07-13T09:18:21;100135.40;;;22.28
68952;BMP180;56000;51.146;17.112;2023-07-13T09:21:02;100141.20;;;22.64
68952;BMP180;56000;51.146;17.112;2023-07-13T09:23:38;100130.00;;;23.04
68952;BMP180;56000;51.146;17.112;2023-07-13T09:26:19;100133.60;;;23.34
68952;BMP180;56000;51.146;17.112;2023-07-13T09:28:57;100129.20;;;23.68
68952;BMP180;56000;51.146;17.112;2023-07-13T09:31:34;100127.20;;;23.90
68952;BMP180;56000;51.146;17.112;2023-07-13T09:34:12;100118.80;;;24.20
68952;BMP180;56000;51.146;17.112;2023-07-13T09:36:45;100126.20;;;24.40
68952;BMP180;56000;51.146;17.112;2023-07-13T09:39:24;100126.60;;;24.50
68952;BMP180;56000;51.146;17.112;2023-07-13T09:42:03;100122.00;;;24.50
68952;BMP180;56000;51.146;17.112;2023-07-13T09:44:49;100119.40;;;24.40
68952;BMP180;56000;51.146;17.112;2023-07-13T09:47:26;100110.80;;;24.50
68952;BMP180;56000;51.146;17.112;2023-07-13T09:50:02;100110.60;;;24.64
68952;BMP180;56000;51.146;17.112;2023-07-13T09:52:46;100108.00;;;24.70
68952;BMP180;56000;51.146;17.112;2023-07-13T09:55:31;100110.20;;;24.70
68952;BMP180;56000;51.146;17.112;2023-07-13T09:58:13;100118.20;;;24.76
68952;BMP180;56000;51.146;17.112;2023-07-13T10:00:56;100118.80;;;25.00
68952;BMP180;56000;51.146;17.112;2023-07-13T10:03:32;100118.40;;;25.32
68952;BMP180;56000;51.146;17.112;2023-07-13T10:06:15;100119.20;;;25.62
68952;BMP180;56000;51.146;17.112;2023-07-13T10:08:50;100116.40;;;26.10
68952;BMP180;56000;51.146;17.112;2023-07-13T10:11:27;100116.00;;;26.62
68952;BMP180;56000;51.146;17.112;2023-07-13T10:14:09;100114.80;;;27.22
68952;BMP180;56000;51.146;17.112;2023-07-13T10:16:45;100105.60;;;27.74
68952;BMP180;56000;51.146;17.112;2023-07-13T10:19:23;100112.40;;;28.44
68952;BMP180;56000;51.146;17.112;2023-07-13T10:22:01;100112.60;;;29.12
68952;BMP180;56000;51.146;17.112;2023-07-13T10:24:38;100123.40;;;29.84
68952;BMP180;56000;51.146;17.112;2023-07-13T10:27:18;100130.40;;;30.20
68952;BMP180;56000;51.146;17.112;2023-07-13T10:30:01;100138.40;;;30.00
68952;BMP180;56000;51.146;17.112;2023-07-13T10:32:35;100140.20;;;29.80
68952;BMP180;56000;51.146;17.112;2023-07-13T10:35:13;100138.40;;;29.94
68952;BMP180;56000;51.146;17.112;2023-07-13T10:37:51;100137.80;;;30.38
68952;BMP180;56000;51.146;17.112;2023-07-13T10:40:32;100132.40;;;30.70
68952;BMP180;56000;51.146;17.112;2023-07-13T10:43:12;100134.00;;;30.50
68952;BMP180;56000;51.146;17.112;2023-07-13T10:45:48;100136.60;;;30.50
68952;BMP180;56000;51.146;17.112;2023-07-13T10:48:22;100139.20;;;30.28
68952;BMP180;56000;51.146;17.112;2023-07-13T10:50:56;100138.80;;;30.10
68952;BMP180;56000;51.146;17.112;2023-07-13T10:53:35;100139.80;;;29.80
68952;BMP180;56000;51.146;17.112;2023-07-13T10:56:22;100134.80;;;29.60
68952;BMP180;56000;51.146;17.112;2023-07-13T10:59:12;100130.00;;;29.70
68952;BMP180;56000;51.146;17.112;2023-07-13T11:01:57;100129.60;;;29.80
68952;BMP180;56000;51.146;17.112;2023-07-13T11:04:41;100136.00;;;30.00
68952;BMP180;56000;51.146;17.112;2023-07-13T11:07:24;100134.80;;;30.86
68952;BMP180;56000;51.146;17.112;2023-07-13T11:10:00;100131.80;;;32.20
68952;BMP180;56000;51.146;17.112;2023-07-13T11:12:55;100130.00;;;33.10
68952;BMP180;56000;51.146;17.112;2023-07-13T11:15:45;100131.40;;;33.46
68952;BMP180;56000;51.146;17.112;2023-07-13T11:18:25;100134.80;;;33.58
68952;BMP180;56000;51.146;17.112;2023-07-13T11:21:18;100132.60;;;33.66
68952;BMP180;56000;51.146;17.112;2023-07-13T11:24:17;100140.00;;;34.10
68952;BMP180;56000;51.146;17.112;2023-07-13T11:26:55;100143.20;;;34.20
68952;BMP180;56000;51.146;17.112;2023-07-13T11:29:39;100143.80;;;34.20
68952;BMP180;56000;51.146;17.112;2023-07-13T11:32:30;100146.80;;;33.26
68952;BMP180;56000;51.146;17.112;2023-07-13T11:35:04;100148.80;;;32.56
68952;BMP180;56000;51.146;17.112;2023-07-13T11:37:39;100146.80;;;32.00
68952;BMP180;56000;51.146;17.112;2023-07-13T11:40:17;100146.00;;;31.86
68952;BMP180;56000;51.146;17.112;2023-07-13T11:42:50;100138.40;;;31.14
68952;BMP180;56000;51.146;17.112;2023-07-13T11:45:24;100145.00;;;30.50
68952;BMP180;56000;51.146;17.112;2023-07-13T11:48:29;100143.80;;;30.22
68952;BMP180;56000;51.146;17.112;2023-07-13T11:51:04;100147.20;;;30.14
68952;BMP180;56000;51.146;17.112;2023-07-13T11:53:49;100145.40;;;30.00
68952;BMP180;56000;51.146;17.112;2023-07-13T11:56:25;100145.40;;;30.30
68952;BMP180;56000;51.146;17.112;2023-07-13T11:59:05;100149.60;;;30.20
68952;BMP180;56000;51.146;17.112;2023-07-13T12:01:44;100153.60;;;29.82
68952;BMP180;56000;51.146;17.112;2023-07-13T12:04:27;100154.00;;;29.52
68952;BMP180;56000;51.146;17.112;2023-07-13T12:07:07;100153.80;;;29.36
68952;BMP180;56000;51.146;17.112;2023-07-13T12:09:39;100150.80;;;29.20
68952;BMP180;56000;51.146;17.112;2023-07-13T12:12:19;100158.40;;;29.00
68952;BMP180;56000;51.146;17.112;2023-07-13T12:14:55;100158.80;;;28.70
68952;BMP180;56000;51.146;17.112;2023-07-13T12:17:29;100156.40;;;28.80
68952;BMP180;56000;51.146;17.112;2023-07-13T12:20:17;100157.80;;;29.00
68952;BMP180;56000;51.146;17.112;2023-07-13T12:22:52;100157.80;;;29.16
68952;BMP180;56000;51.146;17.112;2023-07-13T12:25:26;100159.20;;;29.10
68952;BMP180;56000;51.146;17.112;2023-07-13T12:27:59;100150.20;;;29.30
68952;BMP180;56000;51.146;17.112;2023-07-13T12:30:59;100148.60;;;29.54
68952;BMP180;56000;51.146;17.112;2023-07-13T12:33:34;100145.20;;;30.72
68952;BMP180;56000;51.146;17.112;2023-07-13T12:36:12;100145.40;;;31.26
68952;BMP180;56000;51.146;17.112;2023-07-13T12:38:47;100139.20;;;32.50
68952;BMP180;56000;51.146;17.112;2023-07-13T12:41:21;100140.40;;;33.52
68952;BMP180;56000;51.146;17.112;2023-07-13T12:43:55;100141.20;;;35.18
68952;BMP180;56000;51.146;17.112;2023-07-13T12:46:28;100142.60;;;36.30
68952;BMP180;56000;51.146;17.112;2023-07-13T12:49:04;100141.20;;;35.98
68952;BMP180;56000;51.146;17.112;2023-07-13T12:51:55;100142.60;;;35.24
68952;BMP180;56000;51.146;17.112;2023-07-13T12:54:30;100146.20;;;34.34
68952;BMP180;56000;51.146;17.112;2023-07-13T12:57:07;100140.40;;;33.90
68952;BMP180;56000;51.146;17.112;2023-07-13T12:59:42;100140.00;;;33.88
68952;BMP180;56000;51.146;17.112;2023-07-13T13:02:32;100140.80;;;34.70
68952;BMP180;56000;51.146;17.112;2023-07-13T13:05:08;100139.20;;;36.46
68952;BMP180;56000;51.146;17.112;2023-07-13T13:07:46;100135.20;;;37.22
68952;BMP180;56000;51.146;17.112;2023-07-13T13:10:19;100131.60;;;38.02
68952;BMP180;56000;51.146;17.112;2023-07-13T13:12:53;100128.40;;;38.76
68952;BMP180;56000;51.146;17.112;2023-07-13T13:15:26;100128.40;;;39.74
68952;BMP180;56000;51.146;17.112;2023-07-13T13:18:00;100131.40;;;39.70
68952;BMP180;56000;51.146;17.112;2023-07-13T13:20:33;100130.00;;;40.00
68952;BMP180;56000;51.146;17.112;2023-07-13T13:23:10;100136.00;;;39.90
68952;BMP180;56000;51.146;17.112;2023-07-13T13:25:45;100135.00;;;39.22
68952;BMP180;56000;51.146;17.112;2023-07-13T13:28:21;100133.60;;;39.20
68952;BMP180;56000;51.146;17.112;2023-07-13T13:30:54;100133.00;;;39.84
68952;BMP180;56000;51.146;17.112;2023-07-13T13:33:31;100130.60;;;40.00
68952;BMP180;56000;51.146;17.112;2023-07-13T13:36:05;100128.80;;;40.46
68952;BMP180;56000;51.146;17.112;2023-07-13T13:38:38;100132.60;;;40.60
68952;BMP180;56000;51.146;17.112;2023-07-13T13:41:13;100134.00;;;40.62
68952;BMP180;56000;51.146;17.112;2023-07-13T13:43:47;100130.60;;;41.16
68952;BMP180;56000;51.146;17.112;2023-07-13T13:46:24;100131.60;;;42.08
68952;BMP180;56000;51.146;17.112;2023-07-13T13:49:01;100137.80;;;42.50
68952;BMP180;56000;51.146;17.112;2023-07-13T13:51:34;100144.40;;;42.90
68952;BMP180;56000;51.146;17.112;2023-07-13T13:54:12;100133.40;;;42.98
68952;BMP180;56000;51.146;17.112;2023-07-13T13:56:48;100134.20;;;43.22
68952;BMP180;56000;51.146;17.112;2023-07-13T13:59:22;100130.00;;;43.42
68952;BMP180;56000;51.146;17.112;2023-07-13T14:01:55;100134.20;;;43.80
68952;BMP180;56000;51.146;17.112;2023-07-13T14:04:31;100131.00;;;43.58
68952;BMP180;56000;51.146;17.112;2023-07-13T14:07:05;100124.40;;;43.40
68952;BMP180;56000;51.146;17.112;2023-07-13T14:09:38;100122.00;;;43.40
68952;BMP180;56000;51.146;17.112;2023-07-13T14:12:12;100118.60;;;43.60
68952;BMP180;56000;51.146;17.112;2023-07-13T14:14:45;100114.20;;;43.70
68952;BMP180;56000;51.146;17.112;2023-07-13T14:17:25;100111.40;;;43.90
68952;BMP180;56000;51.146;17.112;2023-07-13T14:19:59;100115.40;;;43.20
68952;BMP180;56000;51.146;17.112;2023-07-13T14:22:32;100113.80;;;43.00
68952;BMP180;56000;51.146;17.112;2023-07-13T14:25:07;100124.80;;;42.90
68952;BMP180;56000;51.146;17.112;2023-07-13T14:27:41;100127.20;;;43.00
68952;BMP180;56000;51.146;17.112;2023-07-13T14:30:18;100127.80;;;43.10
68952;BMP180;56000;51.146;17.112;2023-07-13T14:32:52;100129.40;;;43.30
68952;BMP180;56000;51.146;17.112;2023-07-13T14:35:25;100132.40;;;43.70
68952;BMP180;56000;51.146;17.112;2023-07-13T14:38:00;100131.00;;;43.94
68952;BMP180;56000;51.146;17.112;2023-07-13T14:40:34;100117.20;;;44.30